createdAt,value
2023-03-31T00:00:24.965Z,0.00
2023-03-31T00:01:24.959Z,0.00
2023-03-31T00:02:25.022Z,0.00
2023-03-31T00:03:25.292Z,0.00
2023-03-31T00:04:24.953Z,0.00
2023-03-31T00:05:24.925Z,0.00
2023-03-31T00:06:24.905Z,0.00
2023-03-31T00:07:24.989Z,0.00
2023-03-31T00:08:24.880Z,0.00
2023-03-31T00:09:24.871Z,0.00
2023-03-31T00:10:24.859Z,0.00
2023-03-31T00:11:24.849Z,0.00
2023-03-31T00:12:24.844Z,0.00
2023-03-31T00:13:24.825Z,0.00
2023-03-31T00:14:24.811Z,0.00
2023-03-31T00:15:24.804Z,0.00
2023-03-31T00:16:24.853Z,0.00
2023-03-31T00:17:24.794Z,0.00
2023-03-31T00:18:24.770Z,0.00
2023-03-31T00:19:24.786Z,0.00
2023-03-31T00:20:24.759Z,0.00
2023-03-31T00:21:25.208Z,0.00
2023-03-31T00:22:24.724Z,0.00
2023-03-31T00:23:24.719Z,0.00
2023-03-31T00:24:24.707Z,0.00
2023-03-31T00:25:24.701Z,0.00
2023-03-31T00:26:24.688Z,0.00
2023-03-31T00:27:24.672Z,0.00
2023-03-31T00:28:24.662Z,0.00
2023-03-31T00:29:24.653Z,0.00
2023-03-31T00:30:24.637Z,0.00
2023-03-31T00:31:24.674Z,0.00
2023-03-31T00:32:24.644Z,0.00
2023-03-31T00:33:24.612Z,0.00
2023-03-31T00:34:24.592Z,0.00
2023-03-31T00:35:24.609Z,0.00
2023-03-31T00:36:24.597Z,0.00
2023-03-31T00:37:24.559Z,0.00
2023-03-31T00:38:24.547Z,0.00
2023-03-31T00:39:24.540Z,0.00
2023-03-31T00:40:24.526Z,0.00
2023-03-31T00:41:24.515Z,0.00
2023-03-31T00:42:24.501Z,0.00
2023-03-31T00:43:24.491Z,0.00
2023-03-31T00:44:24.766Z,0.00
2023-03-31T00:45:24.503Z,0.00
2023-03-31T00:46:24.551Z,0.00
2023-03-31T00:47:24.452Z,0.00
2023-03-31T00:48:24.447Z,0.00
2023-03-31T00:49:24.427Z,0.00
2023-03-31T00:50:24.461Z,0.00
2023-03-31T00:51:24.434Z,0.00
2023-03-31T00:52:24.395Z,0.00
2023-03-31T00:53:24.385Z,0.00
2023-03-31T00:54:24.371Z,0.00
2023-03-31T00:55:24.359Z,0.00
2023-03-31T00:56:24.347Z,0.00
2023-03-31T00:57:24.481Z,0.00
2023-03-31T00:58:24.335Z,0.00
2023-03-31T00:59:24.316Z,0.00
2023-03-31T01:00:24.378Z,0.00
2023-03-31T01:01:24.357Z,0.00
2023-03-31T01:02:24.324Z,0.00
2023-03-31T01:03:24.306Z,0.00
2023-03-31T01:04:24.260Z,0.00
2023-03-31T01:05:24.251Z,0.00
2023-03-31T01:06:24.244Z,0.00
2023-03-31T01:07:24.270Z,0.00
2023-03-31T01:08:24.226Z,0.00
2023-03-31T01:09:24.208Z,0.00
2023-03-31T01:10:24.197Z,0.00
2023-03-31T01:11:24.186Z,0.00
2023-03-31T01:12:24.187Z,0.00
2023-03-31T01:13:24.164Z,0.00
2023-03-31T01:14:24.158Z,0.00
2023-03-31T01:15:24.156Z,0.00
2023-03-31T01:16:24.171Z,0.00
2023-03-31T01:17:24.282Z,0.00
2023-03-31T01:18:24.243Z,0.00
2023-03-31T01:19:24.093Z,0.00
2023-03-31T01:20:24.085Z,0.00
2023-03-31T01:21:24.078Z,0.00
2023-03-31T01:22:24.063Z,0.00
2023-03-31T01:23:24.089Z,0.00
2023-03-31T01:24:24.040Z,0.00
2023-03-31T01:25:24.028Z,0.00
2023-03-31T01:26:24.022Z,0.00
2023-03-31T01:27:24.006Z,0.00
2023-03-31T01:28:24.005Z,0.00
2023-03-31T01:29:23.990Z,0.00
2023-03-31T01:30:23.973Z,0.00
2023-03-31T01:31:23.976Z,0.00
2023-03-31T01:32:23.983Z,0.00
2023-03-31T01:33:23.951Z,0.00
2023-03-31T01:34:23.970Z,0.00
2023-03-31T01:35:23.975Z,0.00
2023-03-31T01:36:23.949Z,0.00
2023-03-31T01:37:23.928Z,0.00
2023-03-31T01:38:23.893Z,0.00
2023-03-31T01:39:23.907Z,0.00
2023-03-31T01:40:23.865Z,0.00
2023-03-31T01:41:23.852Z,0.00
2023-03-31T01:42:23.842Z,0.00
2023-03-31T01:43:23.828Z,0.00
2023-03-31T01:44:23.821Z,0.00
2023-03-31T01:45:23.808Z,0.00
2023-03-31T01:46:23.843Z,0.00
2023-03-31T01:47:23.857Z,0.00
2023-03-31T01:48:23.795Z,0.00
2023-03-31T01:49:23.763Z,0.00
2023-03-31T01:50:23.757Z,0.00
2023-03-31T01:51:23.739Z,0.00
2023-03-31T01:52:23.798Z,0.00
2023-03-31T01:53:23.716Z,0.00
2023-03-31T01:54:23.721Z,0.00
2023-03-31T01:55:23.728Z,0.00
2023-03-31T01:56:23.694Z,0.00
2023-03-31T01:57:23.721Z,0.00
2023-03-31T01:58:23.663Z,0.00
2023-03-31T01:59:23.663Z,0.00
2023-03-31T02:00:23.652Z,0.00
2023-03-31T02:01:23.683Z,0.00
2023-03-31T02:02:23.674Z,0.00
2023-03-31T02:03:23.674Z,0.00
2023-03-31T02:04:23.600Z,0.00
2023-03-31T02:05:23.592Z,0.00
2023-03-31T02:06:23.585Z,0.00
2023-03-31T02:07:23.561Z,0.00
2023-03-31T02:08:23.567Z,0.00
2023-03-31T02:09:23.550Z,0.00
2023-03-31T02:10:23.533Z,0.00
2023-03-31T02:11:23.544Z,0.00
2023-03-31T02:12:23.510Z,0.00
2023-03-31T02:13:23.503Z,0.00
2023-03-31T02:14:23.493Z,0.00
2023-03-31T02:15:23.474Z,0.00
2023-03-31T02:16:23.502Z,0.00
2023-03-31T02:17:23.467Z,0.00
2023-03-31T02:18:23.445Z,0.00
2023-03-31T02:19:23.519Z,0.00
2023-03-31T02:20:23.425Z,0.00
2023-03-31T02:21:23.415Z,0.00
2023-03-31T02:22:23.413Z,0.00
2023-03-31T02:23:23.396Z,0.00
2023-03-31T02:24:23.390Z,0.00
2023-03-31T02:25:23.368Z,0.00
2023-03-31T02:26:23.359Z,0.00
2023-03-31T02:27:23.367Z,0.00
2023-03-31T02:28:23.336Z,0.00
2023-03-31T02:29:23.344Z,0.00
2023-03-31T02:30:23.354Z,0.00
2023-03-31T02:31:23.357Z,0.00
2023-03-31T02:32:23.318Z,0.00
2023-03-31T02:33:23.277Z,0.00
2023-03-31T02:34:23.271Z,0.00
2023-03-31T02:35:23.292Z,0.00
2023-03-31T02:36:23.251Z,0.00
2023-03-31T02:37:23.233Z,0.00
2023-03-31T02:38:23.219Z,0.00
2023-03-31T02:39:23.214Z,0.00
2023-03-31T02:40:23.202Z,0.00
2023-03-31T02:41:23.203Z,0.00
2023-03-31T02:42:23.201Z,0.00
2023-03-31T02:43:23.204Z,0.00
2023-03-31T02:44:23.156Z,0.00
2023-03-31T02:45:23.144Z,0.00
2023-03-31T02:46:23.216Z,0.00
2023-03-31T02:47:23.160Z,0.00
2023-03-31T02:48:23.114Z,0.00
2023-03-31T02:49:23.109Z,0.00
2023-03-31T02:50:23.093Z,0.00
2023-03-31T02:51:23.087Z,0.00
2023-03-31T02:52:23.076Z,0.00
2023-03-31T02:53:23.062Z,0.00
2023-03-31T02:54:23.055Z,0.00
2023-03-31T02:55:23.040Z,0.00
2023-03-31T02:56:23.032Z,0.00
2023-03-31T02:57:23.091Z,0.00
2023-03-31T02:58:23.024Z,0.00
2023-03-31T02:59:23.034Z,0.00
2023-03-31T03:00:22.987Z,0.00
2023-03-31T03:01:23.028Z,0.00
2023-03-31T03:02:23.048Z,0.00
2023-03-31T03:03:22.984Z,0.00
2023-03-31T03:04:22.940Z,0.00
2023-03-31T03:05:22.930Z,0.00
2023-03-31T03:06:22.942Z,0.00
2023-03-31T03:07:22.914Z,0.00
2023-03-31T03:08:22.899Z,0.00
2023-03-31T03:09:22.888Z,0.00
2023-03-31T03:10:22.875Z,0.00
2023-03-31T03:11:22.874Z,0.00
2023-03-31T03:12:22.867Z,0.00
2023-03-31T03:13:22.849Z,0.00
2023-03-31T03:14:22.830Z,0.00
2023-03-31T03:15:22.854Z,0.00
2023-03-31T03:16:22.840Z,0.00
2023-03-31T03:17:22.800Z,0.00
2023-03-31T03:18:22.808Z,0.00
2023-03-31T03:19:22.782Z,0.00
2023-03-31T03:20:22.770Z,0.00
2023-03-31T03:21:22.755Z,0.00
2023-03-31T03:22:22.752Z,0.00
2023-03-31T03:23:22.759Z,0.00
2023-03-31T03:24:22.804Z,0.00
2023-03-31T03:25:22.735Z,0.00
2023-03-31T03:26:22.707Z,0.00
2023-03-31T03:27:22.691Z,0.00
2023-03-31T03:28:22.691Z,0.00
2023-03-31T03:29:22.674Z,0.00
2023-03-31T03:30:22.674Z,0.00
2023-03-31T03:31:22.800Z,0.00
2023-03-31T03:32:22.649Z,0.00
2023-03-31T03:33:22.625Z,0.00
2023-03-31T03:34:22.616Z,0.00
2023-03-31T03:35:22.625Z,0.00
2023-03-31T03:36:22.647Z,0.00
2023-03-31T03:37:22.597Z,0.00
2023-03-31T03:38:22.573Z,0.00
2023-03-31T03:39:22.561Z,0.00
2023-03-31T03:40:22.560Z,0.00
2023-03-31T03:41:22.545Z,0.00
2023-03-31T03:42:22.531Z,0.00
2023-03-31T03:43:22.518Z,0.00
2023-03-31T03:44:22.517Z,0.00
2023-03-31T03:45:22.502Z,0.00
2023-03-31T03:46:22.544Z,0.00
2023-03-31T03:47:22.525Z,0.00
2023-03-31T03:48:22.465Z,0.00
2023-03-31T03:49:22.505Z,0.00
2023-03-31T03:50:22.440Z,0.00
2023-03-31T03:51:22.432Z,0.00
2023-03-31T03:52:22.424Z,0.00
2023-03-31T03:53:22.422Z,0.00
2023-03-31T03:54:22.397Z,0.00
2023-03-31T03:55:22.387Z,0.00
2023-03-31T03:56:22.379Z,0.00
2023-03-31T03:57:22.437Z,0.00
2023-03-31T03:58:22.357Z,0.00
2023-03-31T03:59:22.355Z,0.00
2023-03-31T04:00:22.336Z,0.00
2023-03-31T04:01:22.323Z,0.00
2023-03-31T04:02:22.347Z,0.00
2023-03-31T04:03:22.397Z,0.00
2023-03-31T04:04:22.286Z,0.00
2023-03-31T04:05:22.304Z,0.00
2023-03-31T04:06:22.267Z,0.00
2023-03-31T04:07:22.260Z,0.00
2023-03-31T04:08:22.243Z,0.00
2023-03-31T04:09:22.227Z,0.00
2023-03-31T04:10:22.220Z,0.00
2023-03-31T04:11:22.221Z,0.00
2023-03-31T04:12:22.197Z,0.00
2023-03-31T04:13:22.184Z,0.00
2023-03-31T04:14:22.173Z,0.00
2023-03-31T04:15:22.162Z,0.00
2023-03-31T04:16:22.195Z,0.00
2023-03-31T04:17:22.144Z,0.00
2023-03-31T04:18:22.130Z,0.00
2023-03-31T04:19:22.153Z,0.00
2023-03-31T04:20:22.120Z,0.00
2023-03-31T04:21:22.097Z,0.00
2023-03-31T04:22:22.093Z,0.00
2023-03-31T04:23:22.094Z,0.00
2023-03-31T04:24:22.165Z,0.00
2023-03-31T04:25:22.051Z,0.00
2023-03-31T04:26:22.044Z,0.00
2023-03-31T04:27:22.038Z,0.00
2023-03-31T04:28:22.223Z,0.00
2023-03-31T04:29:22.007Z,0.00
2023-03-31T04:30:21.998Z,4.00
2023-03-31T04:31:22.009Z,4.00
2023-03-31T04:32:21.975Z,0.00
2023-03-31T04:33:21.964Z,0.00
2023-03-31T04:34:21.954Z,4.00
2023-03-31T04:35:21.969Z,0.00
2023-03-31T04:36:21.942Z,4.00
2023-03-31T04:37:21.925Z,4.00
2023-03-31T04:38:21.915Z,8.00
2023-03-31T04:39:21.899Z,8.00
2023-03-31T04:40:21.888Z,12.00
2023-03-31T04:41:21.875Z,12.00
2023-03-31T04:42:21.868Z,12.00
2023-03-31T04:43:21.855Z,16.00
2023-03-31T04:44:21.842Z,24.00
2023-03-31T04:45:21.834Z,28.00
2023-03-31T04:46:21.917Z,32.00
2023-03-31T04:47:21.822Z,36.00
2023-03-31T04:48:21.800Z,44.00
2023-03-31T04:49:21.788Z,52.00
2023-03-31T04:50:21.792Z,60.00
2023-03-31T04:51:21.804Z,72.00
2023-03-31T04:52:21.754Z,80.00
2023-03-31T04:53:21.742Z,92.00
2023-03-31T04:54:21.730Z,100.00
2023-03-31T04:55:21.723Z,112.00
2023-03-31T04:56:21.708Z,132.00
2023-03-31T04:57:21.776Z,152.00
2023-03-31T04:58:21.688Z,168.00
2023-03-31T04:59:21.676Z,188.00
2023-03-31T05:00:21.669Z,208.00
2023-03-31T05:01:21.663Z,224.00
2023-03-31T05:02:23.651Z,236.00
2023-03-31T05:03:21.822Z,248.00
2023-03-31T05:04:21.625Z,244.00
2023-03-31T05:05:21.612Z,248.00
2023-03-31T05:06:21.602Z,264.00
2023-03-31T05:07:21.621Z,288.00
2023-03-31T05:08:21.583Z,308.00
2023-03-31T05:09:21.569Z,324.00
2023-03-31T05:10:21.561Z,348.00
2023-03-31T05:11:21.557Z,380.00
2023-03-31T05:12:21.578Z,412.00
2023-03-31T05:13:21.544Z,436.00
2023-03-31T05:14:21.525Z,464.00
2023-03-31T05:15:21.505Z,508.00
2023-03-31T05:16:21.566Z,564.00
2023-03-31T05:17:21.481Z,616.00
2023-03-31T05:18:21.497Z,668.00
2023-03-31T05:19:21.460Z,724.00
2023-03-31T05:20:21.453Z,784.00
2023-03-31T05:21:21.443Z,844.00
2023-03-31T05:22:21.444Z,876.00
2023-03-31T05:23:21.447Z,896.00
2023-03-31T05:24:21.406Z,952.00
2023-03-31T05:25:21.395Z,1024.00
2023-03-31T05:26:21.389Z,1096.00
2023-03-31T05:27:21.371Z,1148.00
2023-03-31T05:28:21.359Z,1180.00
2023-03-31T05:29:21.361Z,1200.00
2023-03-31T05:30:21.339Z,1216.00
2023-03-31T05:31:21.354Z,1232.00
2023-03-31T05:32:21.351Z,1236.00
2023-03-31T05:33:21.308Z,1224.00
2023-03-31T05:34:21.298Z,1200.00
2023-03-31T05:35:21.287Z,1184.00
2023-03-31T05:36:21.314Z,1184.00
2023-03-31T05:37:21.283Z,1188.00
2023-03-31T05:38:21.255Z,1188.00
2023-03-31T05:39:21.369Z,1176.00
2023-03-31T05:40:21.237Z,1156.00
2023-03-31T05:41:21.445Z,1140.00
2023-03-31T05:42:21.236Z,1116.00
2023-03-31T05:43:21.211Z,1104.00
2023-03-31T05:44:21.182Z,1148.00
2023-03-31T05:45:21.179Z,1180.00
2023-03-31T05:46:21.237Z,1200.00
2023-03-31T05:47:21.171Z,1060.00
2023-03-31T05:48:21.138Z,1028.00
2023-03-31T05:49:21.132Z,1168.00
2023-03-31T05:50:21.120Z,1184.00
2023-03-31T05:51:21.114Z,1140.00
2023-03-31T05:52:21.098Z,1124.00
2023-03-31T05:53:21.084Z,1332.00
2023-03-31T05:54:21.071Z,1612.00
2023-03-31T05:55:21.094Z,1632.00
2023-03-31T05:56:21.045Z,1564.00
2023-03-31T05:57:21.144Z,1564.00
2023-03-31T05:58:21.228Z,1684.00
2023-03-31T05:59:21.017Z,1644.00
2023-03-31T06:00:21.002Z,1568.00
2023-03-31T06:01:21.009Z,1532.00
2023-03-31T06:02:21.037Z,1456.00
2023-03-31T06:03:20.973Z,1384.00
2023-03-31T06:04:21.028Z,1416.00
2023-03-31T06:05:20.948Z,1376.00
2023-03-31T06:06:20.938Z,1372.00
2023-03-31T06:07:20.926Z,1396.00
2023-03-31T06:08:20.930Z,1436.00
2023-03-31T06:09:20.903Z,1416.00
2023-03-31T06:10:20.892Z,1600.00
2023-03-31T06:11:20.906Z,1604.00
2023-03-31T06:12:20.869Z,1832.00
2023-03-31T06:13:20.856Z,1968.00
2023-03-31T06:14:20.849Z,2000.00
2023-03-31T06:15:20.840Z,2208.00
2023-03-31T06:16:20.875Z,2356.00
2023-03-31T06:17:20.810Z,2536.00
2023-03-31T06:18:20.803Z,2644.00
2023-03-31T06:19:20.788Z,2716.00
2023-03-31T06:20:27.823Z,2688.00
2023-03-31T06:21:21.839Z,2596.00
2023-03-31T06:22:20.758Z,2460.00
2023-03-31T06:23:20.746Z,2420.00
2023-03-31T06:24:20.730Z,2500.00
2023-03-31T06:25:20.725Z,2356.00
2023-03-31T06:26:20.712Z,2484.00
2023-03-31T06:27:20.726Z,2584.00
2023-03-31T06:28:20.686Z,2312.00
2023-03-31T06:29:20.682Z,2028.00
2023-03-31T06:30:20.672Z,2440.00
2023-03-31T06:31:20.673Z,2196.00
2023-03-31T06:32:20.638Z,2044.00
2023-03-31T06:33:20.641Z,2084.00
2023-03-31T06:34:21.601Z,1968.00
2023-03-31T06:35:20.616Z,1616.00
2023-03-31T06:36:20.627Z,1564.00
2023-03-31T06:37:20.582Z,1460.00
2023-03-31T06:38:20.782Z,1348.00
2023-03-31T06:39:20.561Z,1416.00
2023-03-31T06:40:20.563Z,1560.00
2023-03-31T06:41:20.542Z,1504.00
2023-03-31T06:42:20.542Z,1556.00
2023-03-31T06:43:20.564Z,1804.00
2023-03-31T06:44:20.503Z,2272.00
2023-03-31T06:45:20.504Z,2652.00
2023-03-31T06:46:20.545Z,2840.00
2023-03-31T06:47:20.489Z,2768.00
2023-03-31T06:48:20.457Z,2292.00
2023-03-31T06:49:20.448Z,2780.00
2023-03-31T06:50:20.450Z,3092.00
2023-03-31T06:51:20.619Z,3348.00
2023-03-31T06:52:20.410Z,3840.00
2023-03-31T06:53:20.405Z,4356.00
2023-03-31T06:54:20.391Z,5000.00
2023-03-31T06:55:20.380Z,4248.00
2023-03-31T06:56:20.385Z,4992.00
2023-03-31T06:57:20.415Z,5176.00
2023-03-31T06:58:20.341Z,4856.00
2023-03-31T06:59:20.359Z,4828.00
2023-03-31T07:00:23.026Z,5744.00
2023-03-31T07:01:20.352Z,5436.00
2023-03-31T07:02:20.331Z,4876.00
2023-03-31T07:03:20.429Z,4424.00
2023-03-31T07:04:20.280Z,5032.00
2023-03-31T07:05:20.513Z,5708.00
2023-03-31T07:06:20.253Z,5756.00
2023-03-31T07:07:20.250Z,6292.00
2023-03-31T07:08:20.239Z,6992.00
2023-03-31T07:09:20.220Z,7676.00
2023-03-31T07:10:20.212Z,7740.00
2023-03-31T07:11:21.049Z,7508.00
2023-03-31T07:12:20.188Z,7632.00
2023-03-31T07:13:20.177Z,7016.00
2023-03-31T07:14:20.167Z,5268.00
2023-03-31T07:15:20.177Z,4024.00
2023-03-31T07:16:20.170Z,4032.00
2023-03-31T07:17:20.133Z,4816.00
2023-03-31T07:18:20.125Z,4472.00
2023-03-31T07:19:20.122Z,3640.00
2023-03-31T07:20:20.108Z,3620.00
2023-03-31T07:21:20.088Z,4296.00
2023-03-31T07:22:20.083Z,5148.00
2023-03-31T07:23:20.066Z,5852.00
2023-03-31T07:24:20.062Z,6492.00
2023-03-31T07:25:20.057Z,6664.00
2023-03-31T07:26:20.031Z,6084.00
2023-03-31T07:27:20.027Z,5304.00
2023-03-31T07:28:20.014Z,5640.00
2023-03-31T07:29:20.002Z,5912.00
2023-03-31T07:30:20.013Z,5276.00
2023-03-31T07:31:20.087Z,4900.00
2023-03-31T07:32:19.966Z,4580.00
2023-03-31T07:33:19.958Z,4220.00
2023-03-31T07:34:19.942Z,4364.00
2023-03-31T07:35:19.953Z,4828.00
2023-03-31T07:36:20.377Z,6568.00
2023-03-31T07:37:19.914Z,8032.00
2023-03-31T07:38:19.896Z,7792.00
2023-03-31T07:39:19.890Z,6312.00
2023-03-31T07:40:19.880Z,6564.00
2023-03-31T07:41:19.867Z,6096.00
2023-03-31T07:42:19.851Z,7640.00
2023-03-31T07:43:19.846Z,9376.00
2023-03-31T07:44:19.833Z,9592.00
2023-03-31T07:45:19.831Z,10412.00
2023-03-31T07:46:19.848Z,10656.00
2023-03-31T07:47:19.822Z,10532.00
2023-03-31T07:48:19.784Z,9160.00
2023-03-31T07:49:19.782Z,7892.00
2023-03-31T07:50:19.783Z,9428.00
2023-03-31T07:51:19.763Z,9608.00
2023-03-31T07:52:19.742Z,10796.00
2023-03-31T07:53:19.728Z,10848.00
2023-03-31T07:54:19.720Z,10596.00
2023-03-31T07:55:19.706Z,8700.00
2023-03-31T07:56:19.692Z,9260.00
2023-03-31T07:57:19.771Z,10364.00
2023-03-31T07:58:19.681Z,10392.00
2023-03-31T07:59:19.659Z,8764.00
2023-03-31T08:00:19.645Z,10028.00
2023-03-31T08:01:19.639Z,10516.00
2023-03-31T08:02:19.807Z,9640.00
2023-03-31T08:03:19.669Z,8824.00
2023-03-31T08:04:19.692Z,8820.00
2023-03-31T08:05:19.597Z,9004.00
2023-03-31T08:06:19.597Z,8936.00
2023-03-31T08:07:19.571Z,8612.00
2023-03-31T08:08:19.562Z,7980.00
2023-03-31T08:09:19.551Z,8836.00
2023-03-31T08:10:19.534Z,8056.00
2023-03-31T08:11:19.528Z,9576.00
2023-03-31T08:12:19.509Z,9748.00
2023-03-31T08:13:19.500Z,10300.00
2023-03-31T08:14:30.319Z,11496.00
2023-03-31T08:15:20.515Z,11008.00
2023-03-31T08:16:19.534Z,10840.00
2023-03-31T08:17:19.463Z,11064.00
2023-03-31T08:18:19.440Z,10656.00
2023-03-31T08:19:19.461Z,10100.00
2023-03-31T08:20:19.428Z,9796.00
2023-03-31T08:21:20.190Z,11528.00
2023-03-31T08:22:19.401Z,11452.00
2023-03-31T08:23:19.395Z,10276.00
2023-03-31T08:24:19.377Z,11920.00
2023-03-31T08:25:19.366Z,12132.00
2023-03-31T08:26:19.361Z,10696.00
2023-03-31T08:27:19.346Z,12536.00
2023-03-31T08:28:19.334Z,13468.00
2023-03-31T08:29:19.343Z,14652.00
2023-03-31T08:30:19.332Z,14348.00
2023-03-31T08:31:19.355Z,12296.00
2023-03-31T08:32:19.284Z,10612.00
2023-03-31T08:33:19.276Z,10120.00
2023-03-31T08:34:19.263Z,12208.00
2023-03-31T08:35:19.280Z,10680.00
2023-03-31T08:36:19.267Z,11324.00
2023-03-31T08:37:19.232Z,9484.00
2023-03-31T08:38:19.226Z,8140.00
2023-03-31T08:39:19.207Z,7588.00
2023-03-31T08:40:19.214Z,7980.00
2023-03-31T08:41:19.192Z,7048.00
2023-03-31T08:42:19.177Z,6692.00
2023-03-31T08:43:19.166Z,8040.00
2023-03-31T08:44:19.159Z,7756.00
2023-03-31T08:45:19.145Z,6560.00
2023-03-31T08:46:19.134Z,6264.00
2023-03-31T08:47:19.120Z,4968.00
2023-03-31T08:48:19.109Z,4268.00
2023-03-31T08:49:19.098Z,4748.00
2023-03-31T08:50:19.094Z,6596.00
2023-03-31T08:51:19.101Z,6148.00
2023-03-31T08:52:19.062Z,5996.00
2023-03-31T08:53:19.056Z,5772.00
2023-03-31T08:54:19.045Z,5404.00
2023-03-31T08:55:19.026Z,5608.00
2023-03-31T08:56:19.022Z,6288.00
2023-03-31T08:57:19.037Z,6144.00
2023-03-31T08:58:18.991Z,5212.00
2023-03-31T08:59:18.984Z,5504.00
2023-03-31T09:00:19.030Z,5760.00
2023-03-31T09:01:19.004Z,5496.00
2023-03-31T09:02:19.116Z,5664.00
2023-03-31T09:03:19.158Z,6256.00
2023-03-31T09:04:19.063Z,6672.00
2023-03-31T09:05:18.921Z,6736.00
2023-03-31T09:06:18.904Z,5732.00
2023-03-31T09:07:18.918Z,5792.00
2023-03-31T09:08:18.877Z,6284.00
2023-03-31T09:09:18.869Z,6932.00
2023-03-31T09:10:18.867Z,7720.00
2023-03-31T09:11:18.846Z,7448.00
2023-03-31T09:12:18.838Z,8648.00
2023-03-31T09:13:18.822Z,7884.00
2023-03-31T09:14:18.812Z,7376.00
2023-03-31T09:15:18.804Z,7172.00
2023-03-31T09:16:18.825Z,7920.00
2023-03-31T09:17:18.780Z,9160.00
2023-03-31T09:18:18.768Z,10820.00
2023-03-31T09:19:18.754Z,11856.00
2023-03-31T09:20:18.741Z,10576.00
2023-03-31T09:21:18.745Z,9532.00
2023-03-31T09:22:18.720Z,8996.00
2023-03-31T09:23:18.738Z,9020.00
2023-03-31T09:24:18.694Z,8796.00
2023-03-31T09:25:18.693Z,8648.00
2023-03-31T09:26:18.676Z,8380.00
2023-03-31T09:27:18.675Z,7512.00
2023-03-31T09:28:18.652Z,7052.00
2023-03-31T09:29:18.684Z,7380.00
2023-03-31T09:30:18.664Z,8588.00
2023-03-31T09:31:18.723Z,8216.00
2023-03-31T09:32:18.616Z,9608.00
2023-03-31T09:33:18.601Z,9824.00
2023-03-31T09:34:18.598Z,10680.00
2023-03-31T09:35:18.606Z,10512.00
2023-03-31T09:36:18.626Z,9888.00
2023-03-31T09:37:18.604Z,9796.00
2023-03-31T09:38:18.575Z,8056.00
2023-03-31T09:39:18.564Z,6880.00
2023-03-31T09:40:18.515Z,6644.00
2023-03-31T09:41:18.509Z,6232.00
2023-03-31T09:42:18.489Z,4784.00
2023-03-31T09:43:18.480Z,3700.00
2023-03-31T09:44:18.472Z,4044.00
2023-03-31T09:45:18.459Z,4692.00
2023-03-31T09:46:18.678Z,5156.00
2023-03-31T09:47:18.438Z,5028.00
2023-03-31T09:48:18.433Z,4792.00
2023-03-31T09:49:18.423Z,4772.00
2023-03-31T09:50:18.419Z,5060.00
2023-03-31T09:51:18.392Z,4780.00
2023-03-31T09:52:18.380Z,5024.00
2023-03-31T09:53:18.367Z,5376.00
2023-03-31T09:54:18.354Z,4892.00
2023-03-31T09:55:28.439Z,5740.00
2023-03-31T09:56:19.355Z,5160.00
2023-03-31T09:57:18.347Z,5284.00
2023-03-31T09:58:18.309Z,5872.00
2023-03-31T09:59:18.308Z,7604.00
2023-03-31T10:00:18.290Z,8388.00
2023-03-31T10:01:18.292Z,8236.00
2023-03-31T10:02:18.272Z,8804.00
2023-03-31T10:03:18.247Z,8140.00
2023-03-31T10:04:18.290Z,7652.00
2023-03-31T10:05:18.226Z,6992.00
2023-03-31T10:06:18.216Z,5484.00
2023-03-31T10:07:18.204Z,6028.00
2023-03-31T10:08:18.194Z,5340.00
2023-03-31T10:09:18.177Z,4816.00
2023-03-31T10:10:18.170Z,4872.00
2023-03-31T10:11:18.192Z,5300.00
2023-03-31T10:12:18.150Z,5788.00
2023-03-31T10:13:18.140Z,6364.00
2023-03-31T10:14:18.141Z,6204.00
2023-03-31T10:15:18.115Z,5864.00
2023-03-31T10:16:18.156Z,7120.00
2023-03-31T10:17:18.088Z,6540.00
2023-03-31T10:18:18.116Z,9008.00
2023-03-31T10:19:18.074Z,10872.00
2023-03-31T10:20:18.058Z,10628.00
2023-03-31T10:21:18.042Z,8620.00
2023-03-31T10:22:18.039Z,8056.00
2023-03-31T10:23:18.016Z,7992.00
2023-03-31T10:24:18.007Z,6772.00
2023-03-31T10:25:18.002Z,5656.00
2023-03-31T10:26:17.991Z,5352.00
2023-03-31T10:27:19.822Z,5276.00
2023-03-31T10:28:17.961Z,5416.00
2023-03-31T10:29:17.946Z,4880.00
2023-03-31T10:30:17.978Z,5576.00
2023-03-31T10:31:17.987Z,5580.00
2023-03-31T10:32:17.925Z,5088.00
2023-03-31T10:33:22.829Z,4916.00
2023-03-31T10:34:17.904Z,4112.00
2023-03-31T10:35:17.876Z,5156.00
2023-03-31T10:36:17.878Z,5056.00
2023-03-31T10:37:17.853Z,8240.00
2023-03-31T10:38:17.844Z,8420.00
2023-03-31T10:39:17.828Z,7764.00
2023-03-31T10:40:17.897Z,8196.00
2023-03-31T10:41:17.836Z,8444.00
2023-03-31T10:42:17.795Z,9092.00
2023-03-31T10:43:17.812Z,9532.00
2023-03-31T10:44:17.776Z,9520.00
2023-03-31T10:45:29.684Z,8872.00
2023-03-31T10:46:18.825Z,6444.00
2023-03-31T10:47:17.734Z,5876.00
2023-03-31T10:48:17.727Z,6388.00
2023-03-31T10:49:17.714Z,7000.00
2023-03-31T10:50:17.781Z,7672.00
2023-03-31T10:51:17.700Z,9124.00
2023-03-31T10:52:17.680Z,11276.00
2023-03-31T10:53:17.665Z,12972.00
2023-03-31T10:54:17.654Z,14684.00
2023-03-31T10:55:17.643Z,16640.00
2023-03-31T10:56:17.645Z,18048.00
2023-03-31T10:57:17.655Z,18176.00
2023-03-31T10:58:17.617Z,17760.00
2023-03-31T10:59:17.648Z,16608.00
2023-03-31T11:00:17.624Z,14292.00
2023-03-31T11:01:17.609Z,13016.00
2023-03-31T11:02:17.566Z,11296.00
2023-03-31T11:03:17.674Z,9324.00
2023-03-31T11:04:17.542Z,8788.00
2023-03-31T11:05:17.530Z,8684.00
2023-03-31T11:06:17.521Z,8940.00
2023-03-31T11:07:17.525Z,9360.00
2023-03-31T11:08:19.797Z,10044.00
2023-03-31T11:09:17.539Z,10484.00
2023-03-31T11:10:17.595Z,11108.00
2023-03-31T11:11:17.463Z,10296.00
2023-03-31T11:12:17.454Z,9444.00
2023-03-31T11:13:17.476Z,9384.00
2023-03-31T11:14:17.432Z,9640.00
2023-03-31T11:15:17.441Z,10484.00
2023-03-31T11:16:17.510Z,11876.00
2023-03-31T11:17:17.559Z,12764.00
2023-03-31T11:18:17.419Z,12936.00
2023-03-31T11:19:17.384Z,12788.00
2023-03-31T11:20:17.396Z,13168.00
2023-03-31T11:21:17.366Z,14444.00
2023-03-31T11:22:17.342Z,16344.00
2023-03-31T11:23:17.337Z,19136.00
2023-03-31T11:24:17.334Z,21056.00
2023-03-31T11:25:17.320Z,22208.00
2023-03-31T11:26:17.305Z,23936.00
2023-03-31T11:27:17.303Z,24768.00
2023-03-31T11:28:17.284Z,24512.00
2023-03-31T11:29:17.271Z,24704.00
2023-03-31T11:30:17.250Z,24864.00
2023-03-31T11:31:17.275Z,27232.00
2023-03-31T11:32:17.235Z,26208.00
2023-03-31T11:33:17.259Z,22304.00
2023-03-31T11:34:17.212Z,24384.00
2023-03-31T11:35:17.205Z,23776.00
2023-03-31T11:36:17.253Z,20128.00
2023-03-31T11:37:17.179Z,19712.00
2023-03-31T11:38:17.170Z,21120.00
2023-03-31T11:39:17.156Z,22464.00
2023-03-31T11:40:17.140Z,22816.00
2023-03-31T11:41:17.126Z,22368.00
2023-03-31T11:42:17.120Z,20064.00
2023-03-31T11:43:17.103Z,18560.00
2023-03-31T11:44:17.093Z,19040.00
2023-03-31T11:45:17.082Z,19648.00
2023-03-31T11:46:17.165Z,20096.00
2023-03-31T11:47:17.087Z,19968.00
2023-03-31T11:48:17.161Z,19392.00
2023-03-31T11:49:17.042Z,19104.00
2023-03-31T11:50:17.037Z,19072.00
2023-03-31T11:51:17.023Z,18752.00
2023-03-31T11:52:17.013Z,17856.00
2023-03-31T11:53:16.994Z,16212.00
2023-03-31T11:54:16.982Z,13328.00
2023-03-31T11:55:16.989Z,10692.00
2023-03-31T11:56:16.968Z,8616.00
2023-03-31T11:57:16.974Z,6328.00
2023-03-31T11:58:16.953Z,4572.00
2023-03-31T11:59:16.927Z,3616.00
2023-03-31T12:00:16.935Z,3396.00
2023-03-31T12:01:16.923Z,4012.00
2023-03-31T12:02:16.898Z,4472.00
2023-03-31T12:03:16.999Z,4876.00
2023-03-31T12:04:16.914Z,5964.00
2023-03-31T12:05:16.913Z,7384.00
2023-03-31T12:06:16.905Z,8536.00
2023-03-31T12:07:16.839Z,8808.00
2023-03-31T12:08:16.848Z,9888.00
2023-03-31T12:09:16.820Z,10784.00
2023-03-31T12:10:16.822Z,11820.00
2023-03-31T12:11:16.792Z,12604.00
2023-03-31T12:12:16.784Z,13648.00
2023-03-31T12:13:16.768Z,14660.00
2023-03-31T12:14:16.763Z,14368.00
2023-03-31T12:15:16.799Z,12524.00
2023-03-31T12:16:16.763Z,10188.00
2023-03-31T12:17:16.729Z,8324.00
2023-03-31T12:18:16.719Z,7360.00
2023-03-31T12:19:16.729Z,6772.00
2023-03-31T12:20:16.695Z,7204.00
2023-03-31T12:21:16.681Z,8144.00
2023-03-31T12:22:16.677Z,8972.00
2023-03-31T12:23:16.668Z,10100.00
2023-03-31T12:24:16.680Z,11588.00
2023-03-31T12:25:16.651Z,14672.00
2023-03-31T12:26:16.630Z,19680.00
2023-03-31T12:27:16.709Z,23936.00
2023-03-31T12:28:16.622Z,25568.00
2023-03-31T12:29:16.592Z,24032.00